createdAt,value
2018-11-21T00:01:44.138Z,3.70
2018-11-21T00:04:25.734Z,3.70
2018-11-21T00:07:07.386Z,3.70
2018-11-21T00:09:49.434Z,3.80
2018-11-21T00:12:31.582Z,3.80
2018-11-21T00:15:13.382Z,3.70
2018-11-21T00:17:55.043Z,3.70
2018-11-21T00:20:37.505Z,3.60
2018-11-21T00:23:19.781Z,3.70
2018-11-21T00:26:02.126Z,3.70
2018-11-21T00:28:43.776Z,3.70
2018-11-21T00:31:26.274Z,3.70
2018-11-21T00:34:08.159Z,3.70
2018-11-21T00:36:50.864Z,3.70
2018-11-21T00:39:33.393Z,3.70
2018-11-21T00:42:15.140Z,3.60
2018-11-21T00:44:57.300Z,3.70
2018-11-21T00:47:39.729Z,3.70
2018-11-21T00:50:21.880Z,3.70
2018-11-21T00:55:48.807Z,3.60
2018-11-21T00:58:30.338Z,3.60
2018-11-21T01:01:12.257Z,3.60
2018-11-21T01:03:53.968Z,3.60
2018-11-21T01:06:36.044Z,3.60
2018-11-21T01:09:18.000Z,3.50
2018-11-21T01:12:00.535Z,3.50
2018-11-21T01:14:43.057Z,3.50
2018-11-21T01:17:25.281Z,3.50
2018-11-21T01:20:07.004Z,3.40
2018-11-21T01:22:48.691Z,3.40
2018-11-21T01:25:30.570Z,3.50
2018-11-21T01:28:12.204Z,3.60
2018-11-21T01:30:54.674Z,3.50
2018-11-21T01:33:37.168Z,3.60
2018-11-21T01:36:19.029Z,3.70
2018-11-21T01:39:00.664Z,3.70
2018-11-21T01:41:42.541Z,3.80
2018-11-21T01:44:24.482Z,3.90
2018-11-21T01:47:07.535Z,3.70
2018-11-21T01:49:49.196Z,3.80
2018-11-21T01:52:31.419Z,3.80
2018-11-21T01:55:13.743Z,3.80
2018-11-21T01:57:55.330Z,3.80
2018-11-21T02:00:37.063Z,3.70
2018-11-21T02:03:19.622Z,3.80
2018-11-21T02:06:01.234Z,3.80
2018-11-21T02:08:43.620Z,3.80
2018-11-21T02:11:25.271Z,3.90
2018-11-21T02:14:07.738Z,3.80
2018-11-21T02:16:50.030Z,3.80
2018-11-21T02:19:31.662Z,3.80
2018-11-21T02:22:13.418Z,3.90
2018-11-21T02:24:55.223Z,3.80
2018-11-21T02:27:36.942Z,3.90
2018-11-21T02:30:19.257Z,3.70
2018-11-21T02:33:00.943Z,3.70
2018-11-21T02:35:43.462Z,3.60
2018-11-21T02:38:25.890Z,3.70
2018-11-21T02:41:08.177Z,3.80
2018-11-21T02:43:50.439Z,3.80
2018-11-21T02:46:32.489Z,3.90
2018-11-21T02:49:15.218Z,3.80
2018-11-21T02:51:56.842Z,3.80
2018-11-21T02:54:39.370Z,3.80
2018-11-21T03:00:06.730Z,3.90
2018-11-21T03:02:48.527Z,3.80
2018-11-21T03:05:30.415Z,3.80
2018-11-21T03:08:12.425Z,3.80
2018-11-21T03:10:54.110Z,3.70
2018-11-21T03:13:36.788Z,3.70
2018-11-21T03:16:19.077Z,3.70
2018-11-21T03:19:00.735Z,3.80
2018-11-21T03:21:42.400Z,3.90
2018-11-21T03:24:24.909Z,3.80
2018-11-21T03:27:07.722Z,4.00
2018-11-21T03:29:50.274Z,3.90
2018-11-21T03:32:32.581Z,3.80
2018-11-21T03:35:14.798Z,3.70
2018-11-21T03:37:57.519Z,3.80
2018-11-21T03:40:39.875Z,3.80
2018-11-21T03:43:21.574Z,3.80
2018-11-21T03:46:49.477Z,3.70
2018-11-21T03:49:31.724Z,3.70
2018-11-21T03:52:13.354Z,3.80
2018-11-21T03:54:54.953Z,3.80
2018-11-21T03:57:36.687Z,3.80
2018-11-21T04:00:18.879Z,3.80
2018-11-21T04:03:00.192Z,3.70
2018-11-21T04:05:41.954Z,3.70
2018-11-21T04:08:24.219Z,3.70
2018-11-21T04:11:05.515Z,3.80
2018-11-21T04:13:47.644Z,3.70
2018-11-21T04:16:27.411Z,3.60
2018-11-21T04:19:16.303Z,3.60
2018-11-21T04:22:07.415Z,3.60
2018-11-21T04:24:53.818Z,3.70
2018-11-21T04:27:42.611Z,3.70
2018-11-21T04:30:31.438Z,3.70
2018-11-21T04:33:20.238Z,3.70
2018-11-21T04:36:09.550Z,3.70
2018-11-21T04:38:58.357Z,3.80
2018-11-21T04:41:47.107Z,3.90
2018-11-21T04:44:36.243Z,3.90
2018-11-21T04:47:25.015Z,3.80
2018-11-21T04:50:13.803Z,3.80
2018-11-21T04:53:02.660Z,3.80
2018-11-21T04:55:51.418Z,3.80
2018-11-21T04:58:40.218Z,3.90
2018-11-21T05:01:29.068Z,3.80
2018-11-21T05:07:32.503Z,3.80
2018-11-21T05:10:21.624Z,3.80
2018-11-21T05:13:10.449Z,3.80
2018-11-21T05:15:59.247Z,3.70
2018-11-21T05:18:48.100Z,3.80
2018-11-21T05:21:36.885Z,3.80
2018-11-21T05:24:26.091Z,3.90
2018-11-21T05:27:14.988Z,4.00
2018-11-21T05:30:03.953Z,3.90
2018-11-21T05:36:07.418Z,4.00
2018-11-21T05:38:56.430Z,4.00
2018-11-21T05:41:45.203Z,4.00
2018-11-21T05:44:33.974Z,3.90
2018-11-21T05:47:22.858Z,4.00
2018-11-21T05:50:12.910Z,4.10
2018-11-21T05:53:01.722Z,4.00
2018-11-21T05:55:50.620Z,3.90
2018-11-21T05:58:39.436Z,3.90
2018-11-21T06:01:28.258Z,4.00
2018-11-21T06:04:17.156Z,4.00
2018-11-21T06:07:06.012Z,4.00
2018-11-21T06:09:54.838Z,3.90
2018-11-21T06:12:44.471Z,4.00
2018-11-21T06:18:41.522Z,4.10
2018-11-21T06:24:45.311Z,4.20
2018-11-21T06:27:34.058Z,4.00
2018-11-21T06:30:22.824Z,4.10
2018-11-21T06:33:11.595Z,4.10
2018-11-21T06:36:00.346Z,4.10
2018-11-21T06:41:57.810Z,4.20
2018-11-21T06:44:46.622Z,4.20
2018-11-21T06:47:35.405Z,4.20
2018-11-21T06:53:32.869Z,4.20
2018-11-21T06:56:21.713Z,4.10
2018-11-21T06:59:11.020Z,4.10
2018-11-21T07:01:59.726Z,4.10
2018-11-21T07:04:48.603Z,4.00
2018-11-21T07:07:37.363Z,4.10
2018-11-21T07:10:26.408Z,4.10
2018-11-21T07:13:15.151Z,4.10
2018-11-21T07:16:04.085Z,4.10
2018-11-21T07:22:06.962Z,4.10
2018-11-21T07:24:56.179Z,4.20
2018-11-21T07:27:45.249Z,4.20
2018-11-21T07:30:34.029Z,4.20
2018-11-21T07:33:22.929Z,4.20
2018-11-21T07:36:11.707Z,4.30
2018-11-21T07:39:00.546Z,4.20
2018-11-21T07:41:49.264Z,4.20
2018-11-21T07:44:38.066Z,4.20
2018-11-21T07:47:26.862Z,4.20
2018-11-21T07:50:35.170Z,4.20
2018-11-21T07:53:24.299Z,4.40
2018-11-21T07:56:32.363Z,4.40
2018-11-21T07:59:21.076Z,4.30
2018-11-21T08:02:13.170Z,4.40
2018-11-21T08:08:37.586Z,4.40
2018-11-21T08:11:45.415Z,4.40
2018-11-21T08:14:53.228Z,4.40
2018-11-21T08:18:01.113Z,4.30
2018-11-21T08:21:08.960Z,4.40
2018-11-21T08:24:16.769Z,4.40
2018-11-21T08:30:37.225Z,4.40
2018-11-21T08:33:26.292Z,4.30
2018-11-21T08:36:15.213Z,4.30
2018-11-21T08:39:05.995Z,4.30
2018-11-21T08:41:54.813Z,4.40
2018-11-21T08:44:43.558Z,4.30
2018-11-21T08:47:32.326Z,4.30
2018-11-21T08:53:35.115Z,4.40
2018-11-21T08:56:23.862Z,4.30
2018-11-21T08:59:12.671Z,4.40
2018-11-21T09:02:01.447Z,4.40
2018-11-21T09:07:58.446Z,4.50
2018-11-21T09:10:47.242Z,4.60
2018-11-21T09:13:36.056Z,4.50
2018-11-21T09:16:24.851Z,4.60
2018-11-21T09:19:13.608Z,4.60
2018-11-21T09:22:02.743Z,4.60
2018-11-21T09:24:51.602Z,4.40
2018-11-21T09:27:40.971Z,4.50
2018-11-21T09:30:29.724Z,4.40
2018-11-21T09:33:18.599Z,4.30
2018-11-21T09:36:07.354Z,4.20
2018-11-21T09:38:56.096Z,4.30
2018-11-21T09:41:45.175Z,4.30
2018-11-21T09:44:33.925Z,4.40
2018-11-21T09:47:22.756Z,4.40
2018-11-21T09:53:21.741Z,4.40
2018-11-21T09:56:10.623Z,4.40
2018-11-21T10:02:33.157Z,4.40
2018-11-21T10:05:21.887Z,4.30
2018-11-21T10:08:29.951Z,4.40
2018-11-21T10:11:19.087Z,4.30
2018-11-21T10:17:22.930Z,4.40
2018-11-21T10:20:11.682Z,4.40
2018-11-21T10:23:00.484Z,4.50
2018-11-21T10:25:49.270Z,4.50
2018-11-21T10:31:52.196Z,4.60
2018-11-21T10:34:40.930Z,4.50
2018-11-21T10:37:29.759Z,4.50
2018-11-21T10:40:19.178Z,4.50
2018-11-21T10:46:21.733Z,4.50
2018-11-21T10:49:10.494Z,4.50
2018-11-21T10:51:59.605Z,4.50
2018-11-21T10:58:03.337Z,4.50
2018-11-21T11:01:11.161Z,4.40
2018-11-21T11:04:06.026Z,4.50
2018-11-21T11:07:13.850Z,4.40
2018-11-21T11:10:21.703Z,4.50
2018-11-21T11:13:35.278Z,4.50
2018-11-21T11:16:37.450Z,4.40
2018-11-21T11:19:45.465Z,4.50
2018-11-21T11:22:50.535Z,4.50
2018-11-21T11:25:58.320Z,4.60
2018-11-21T11:29:06.177Z,4.50
2018-11-21T11:32:14.027Z,4.50
2018-11-21T11:35:21.871Z,4.40
2018-11-21T11:38:29.726Z,4.50
2018-11-21T11:41:37.860Z,4.50
2018-11-21T11:44:38.940Z,4.50
2018-11-21T11:47:47.060Z,4.50
2018-11-21T11:50:55.022Z,4.40
2018-11-21T11:54:02.877Z,4.30
2018-11-21T11:57:10.660Z,4.30
2018-11-21T12:00:18.692Z,4.40
2018-11-21T12:03:26.503Z,4.40
2018-11-21T12:06:34.356Z,4.40
2018-11-21T12:09:42.174Z,4.30
2018-11-21T12:12:50.184Z,4.40
2018-11-21T12:15:57.997Z,4.50
2018-11-21T12:19:05.855Z,4.50
2018-11-21T12:22:13.728Z,4.50
2018-11-21T12:25:21.499Z,4.50
2018-11-21T12:28:29.347Z,4.50
2018-11-21T12:31:37.371Z,4.60
2018-11-21T12:34:45.218Z,4.50
2018-11-21T12:37:53.212Z,4.50
2018-11-21T12:41:01.066Z,4.50
2018-11-21T12:44:08.875Z,4.40
2018-11-21T12:47:16.699Z,4.50
2018-11-21T12:50:25.589Z,4.50
2018-11-21T12:53:33.397Z,4.50
2018-11-21T12:56:41.671Z,4.50
2018-11-21T12:59:49.513Z,4.50
2018-11-21T13:02:57.985Z,4.50
2018-11-21T13:06:06.191Z,4.50
2018-11-21T13:09:14.025Z,4.60
2018-11-21T13:12:21.883Z,4.60
2018-11-21T13:15:29.812Z,4.60
2018-11-21T13:18:37.665Z,4.60
2018-11-21T13:21:35.791Z,4.60
2018-11-21T13:24:43.631Z,4.50
2018-11-21T13:27:51.418Z,4.60
2018-11-21T13:30:59.645Z,4.50
2018-11-21T13:34:07.951Z,4.40
2018-11-21T13:37:15.784Z,4.40
2018-11-21T13:40:24.601Z,4.50
2018-11-21T13:43:32.406Z,4.40
2018-11-21T13:46:40.616Z,4.40
2018-11-21T13:49:48.486Z,4.40
2018-11-21T13:52:56.680Z,4.50
2018-11-21T13:55:45.668Z,4.50
2018-11-21T14:01:42.679Z,4.40
2018-11-21T14:04:31.520Z,4.50
2018-11-21T14:07:20.433Z,4.50
2018-11-21T14:10:10.273Z,4.60
2018-11-21T14:12:59.097Z,4.70
2018-11-21T14:15:47.873Z,4.70
2018-11-21T14:18:36.718Z,4.60
2018-11-21T14:21:25.435Z,4.60
2018-11-21T14:24:14.246Z,4.60
2018-11-21T14:27:03.107Z,4.60
2018-11-21T14:29:51.878Z,4.70
2018-11-21T14:32:41.417Z,4.50
2018-11-21T14:35:30.298Z,4.50
2018-11-21T14:38:19.192Z,4.50
2018-11-21T14:41:01.062Z,4.50
2018-11-21T14:43:42.338Z,4.50
2018-11-21T14:46:24.583Z,4.50
2018-11-21T14:49:06.425Z,4.50
2018-11-21T14:51:47.803Z,4.50
2018-11-21T14:54:29.893Z,4.60
2018-11-21T14:57:11.867Z,4.60
2018-11-21T14:59:53.296Z,4.60
2018-11-21T15:02:34.713Z,4.60
2018-11-21T15:05:16.252Z,4.60
2018-11-21T15:07:57.713Z,4.50
2018-11-21T15:10:39.430Z,4.60
2018-11-21T15:13:21.466Z,4.70
2018-11-21T15:16:02.711Z,4.70
2018-11-21T15:18:44.680Z,4.80
2018-11-21T15:21:26.794Z,4.90
2018-11-21T15:24:08.484Z,4.90
2018-11-21T15:26:49.797Z,4.90
2018-11-21T15:29:31.078Z,4.90
2018-11-21T15:32:12.937Z,5.00
2018-11-21T15:34:54.204Z,5.00
2018-11-21T15:37:36.119Z,4.90
2018-11-21T15:40:19.342Z,5.00
2018-11-21T15:43:01.260Z,4.90
2018-11-21T15:45:43.615Z,4.90
2018-11-21T15:48:25.274Z,4.90
2018-11-21T15:51:06.881Z,4.90
2018-11-21T15:53:48.150Z,4.80
2018-11-21T15:56:29.785Z,4.80
2018-11-21T15:59:11.682Z,4.90
2018-11-21T16:01:53.206Z,4.70
2018-11-21T16:04:34.742Z,4.60
2018-11-21T16:07:16.195Z,4.60
2018-11-21T16:09:58.084Z,4.70
2018-11-21T16:12:40.502Z,4.80
2018-11-21T16:15:23.888Z,4.80
2018-11-21T16:18:05.899Z,4.70
2018-11-21T16:20:48.078Z,4.80
2018-11-21T16:23:30.422Z,4.80
2018-11-21T16:26:12.167Z,4.70
2018-11-21T16:28:53.678Z,4.60
2018-11-21T16:31:35.116Z,4.60
2018-11-21T16:34:16.484Z,4.60
2018-11-21T16:36:58.672Z,4.70
2018-11-21T16:39:40.490Z,4.70
2018-11-21T16:42:22.672Z,4.60
2018-11-21T16:45:03.981Z,4.60
2018-11-21T16:47:45.575Z,4.70
2018-11-21T16:50:27.208Z,4.60
2018-11-21T16:53:08.632Z,4.60
2018-11-21T16:55:49.932Z,4.60
2018-11-21T16:58:31.738Z,4.60
2018-11-21T17:01:13.653Z,4.60
2018-11-21T17:03:54.948Z,4.60
2018-11-21T17:06:37.028Z,4.50
2018-11-21T17:09:18.621Z,4.60
2018-11-21T17:12:00.190Z,4.60
2018-11-21T17:14:42.611Z,4.70
2018-11-21T17:17:23.979Z,4.60
2018-11-21T17:20:05.441Z,4.80
2018-11-21T17:22:47.515Z,4.80
2018-11-21T17:25:34.198Z,4.80
2018-11-21T17:28:15.968Z,4.80
2018-11-21T17:30:57.458Z,4.80
2018-11-21T17:33:39.132Z,4.90
2018-11-21T17:36:20.597Z,4.90
2018-11-21T17:39:01.762Z,5.00
2018-11-21T17:41:43.280Z,5.00
2018-11-21T17:44:24.638Z,5.10
2018-11-21T17:47:06.102Z,5.00
2018-11-21T17:49:47.918Z,5.00
2018-11-21T17:52:29.297Z,5.00
2018-11-21T17:55:12.410Z,5.00
2018-11-21T17:57:54.305Z,5.10
2018-11-21T18:00:35.715Z,5.10
2018-11-21T18:03:17.656Z,5.10
2018-11-21T18:05:59.387Z,5.00
2018-11-21T18:08:40.702Z,5.00
2018-11-21T18:11:22.265Z,5.00
2018-11-21T18:14:03.603Z,5.00
2018-11-21T18:16:45.643Z,5.10
2018-11-21T18:19:27.493Z,5.10
2018-11-21T18:22:08.786Z,5.20
2018-11-21T18:24:50.191Z,5.20
2018-11-21T18:27:32.307Z,5.20
2018-11-21T18:30:15.299Z,5.20
2018-11-21T18:32:56.635Z,5.10
2018-11-21T18:35:38.809Z,5.10
2018-11-21T18:38:20.191Z,5.10
2018-11-21T18:41:01.799Z,5.10
2018-11-21T18:43:43.403Z,5.20
2018-11-21T18:46:25.170Z,5.10
2018-11-21T18:49:06.515Z,5.20
2018-11-21T18:51:46.371Z,5.20
2018-11-21T18:54:35.117Z,5.20
2018-11-21T18:57:43.200Z,5.20
2018-11-21T19:00:32.975Z,5.10
2018-11-21T19:03:21.751Z,5.10
2018-11-21T19:06:10.624Z,5.10
2018-11-21T19:08:59.375Z,5.10
2018-11-21T19:11:48.075Z,5.00
2018-11-21T19:14:37.101Z,5.00
2018-11-21T19:17:26.608Z,5.00
2018-11-21T19:20:34.622Z,5.00
2018-11-21T19:26:38.220Z,5.10
2018-11-21T19:29:27.002Z,5.00
2018-11-21T19:32:15.743Z,5.00
2018-11-21T19:35:04.595Z,5.00
2018-11-21T19:37:53.492Z,5.10
2018-11-21T19:40:42.356Z,5.10
2018-11-21T19:43:31.161Z,5.10
2018-11-21T19:46:19.967Z,5.10
2018-11-21T19:49:08.708Z,5.10
2018-11-21T19:51:57.826Z,5.10
2018-11-21T19:54:46.644Z,5.10
2018-11-21T19:57:35.471Z,5.00
2018-11-21T20:03:39.678Z,5.20
2018-11-21T20:06:28.505Z,5.10
2018-11-21T20:09:17.271Z,5.00
2018-11-21T20:12:06.119Z,4.90
2018-11-21T20:14:55.088Z,4.90
2018-11-21T20:20:59.238Z,4.80
2018-11-21T20:23:47.999Z,4.70
2018-11-21T20:26:36.949Z,4.80
2018-11-21T20:29:25.695Z,4.90
2018-11-21T20:32:14.411Z,4.80
2018-11-21T20:35:03.253Z,4.80
2018-11-21T20:37:52.054Z,4.90
2018-11-21T20:40:41.973Z,5.00
2018-11-21T20:49:47.261Z,5.20
2018-11-21T20:52:36.428Z,5.20
2018-11-21T21:04:56.693Z,5.10
2018-11-21T21:20:18.771Z,5.00
2018-11-21T21:23:07.486Z,5.00
2018-11-21T21:25:56.187Z,5.00
2018-11-21T21:28:45.619Z,4.90
2018-11-21T21:31:34.388Z,4.90
2018-11-21T21:34:23.099Z,5.00
2018-11-21T21:37:11.884Z,5.10
2018-11-21T21:40:00.606Z,5.20
2018-11-21T21:42:49.753Z,5.10
2018-11-21T21:45:38.638Z,5.10
2018-11-21T21:48:27.903Z,5.00
2018-11-21T21:51:16.762Z,5.00
2018-11-21T21:54:05.744Z,5.00
2018-11-21T21:56:54.548Z,5.10
2018-11-21T21:59:43.482Z,5.10
2018-11-21T22:02:32.337Z,5.10
2018-11-21T22:05:21.164Z,5.20
2018-11-21T22:08:09.875Z,5.20
2018-11-21T22:10:58.792Z,5.20
2018-11-21T22:13:47.875Z,5.30
2018-11-21T22:16:36.894Z,5.30
2018-11-21T22:19:25.599Z,5.30
2018-11-21T22:22:33.899Z,5.30
2018-11-21T22:25:23.122Z,5.30
2018-11-21T22:28:11.918Z,5.30
2018-11-21T22:31:00.773Z,5.30
2018-11-21T22:33:49.471Z,5.30
2018-11-21T22:36:38.237Z,5.30
2018-11-21T22:39:27.008Z,5.30
2018-11-21T22:42:15.821Z,5.30
2018-11-21T22:45:04.729Z,5.40
2018-11-21T22:51:08.900Z,5.30
2018-11-21T22:53:57.605Z,5.20
2018-11-21T23:00:01.055Z,5.20
2018-11-21T23:02:50.409Z,5.30
2018-11-21T23:08:53.632Z,5.30
2018-11-21T23:11:42.604Z,5.30
2018-11-21T23:14:31.373Z,5.30
2018-11-21T23:17:20.106Z,5.30
2018-11-21T23:20:10.120Z,5.40
2018-11-21T23:22:58.955Z,5.40
2018-11-21T23:25:47.768Z,5.40
2018-11-21T23:28:36.454Z,5.40
2018-11-21T23:31:25.166Z,5.50
2018-11-21T23:34:13.976Z,5.50
2018-11-21T23:37:02.796Z,5.40
2018-11-21T23:39:51.542Z,5.40
2018-11-21T23:42:41.437Z,5.50
2018-11-21T23:45:30.341Z,5.40
2018-11-21T23:48:19.154Z,5.40
2018-11-21T23:51:08.120Z,5.40
2018-11-21T23:53:56.922Z,5.40
2018-11-21T23:57:06.800Z,5.40
